createdAt,value
2023-02-07T00:01:33.138Z,1.16
2023-02-07T00:03:59.409Z,1.16
2023-02-07T00:06:25.686Z,1.00
2023-02-07T00:08:52.047Z,0.79
2023-02-07T00:11:18.329Z,0.77
2023-02-07T00:13:44.595Z,0.85
2023-02-07T00:16:10.881Z,0.89
2023-02-07T00:18:37.140Z,0.99
2023-02-07T00:21:03.435Z,0.83
2023-02-07T00:23:29.718Z,1.12
2023-02-07T00:25:55.981Z,0.64
2023-02-07T00:28:22.318Z,0.63
2023-02-07T00:30:48.761Z,0.58
2023-02-07T00:33:15.047Z,0.30
2023-02-07T00:35:41.335Z,0.37
2023-02-07T00:38:07.573Z,0.67
2023-02-07T00:40:33.844Z,0.63
2023-02-07T00:43:00.145Z,0.75
2023-02-07T00:45:26.418Z,0.49
2023-02-07T00:47:52.669Z,0.55
2023-02-07T00:50:18.935Z,0.72
2023-02-07T00:52:45.248Z,0.97
2023-02-07T00:55:11.506Z,0.96
2023-02-07T00:57:37.764Z,0.87
2023-02-07T01:00:04.040Z,1.05
2023-02-07T01:02:30.344Z,1.03
2023-02-07T01:04:56.639Z,0.89
2023-02-07T01:07:22.910Z,0.80
2023-02-07T01:09:49.233Z,1.18
2023-02-07T01:12:15.494Z,1.22
2023-02-07T01:14:41.738Z,1.17
2023-02-07T01:17:08.017Z,1.30
2023-02-07T01:19:34.280Z,1.11
2023-02-07T01:22:00.619Z,1.12
2023-02-07T01:24:26.862Z,1.12
2023-02-07T01:26:53.102Z,0.77
2023-02-07T01:29:19.378Z,1.09
2023-02-07T01:31:45.723Z,1.32
2023-02-07T01:34:12.067Z,1.46
2023-02-07T01:36:38.315Z,1.27
2023-02-07T01:39:04.561Z,1.07
2023-02-07T01:41:30.805Z,1.45
2023-02-07T01:43:57.077Z,1.53
2023-02-07T01:46:23.347Z,1.66
2023-02-07T01:48:49.608Z,1.42
2023-02-07T01:51:15.874Z,1.62
2023-02-07T01:53:42.141Z,1.61
2023-02-07T01:56:08.425Z,1.72
2023-02-07T01:58:34.684Z,1.79
2023-02-07T02:01:00.934Z,1.76
2023-02-07T02:03:27.202Z,1.80
2023-02-07T02:05:53.469Z,1.87
2023-02-07T02:08:19.718Z,1.89
2023-02-07T02:10:46.032Z,1.95
2023-02-07T02:13:12.278Z,2.00
2023-02-07T02:15:38.937Z,1.81
2023-02-07T02:18:05.394Z,1.80
2023-02-07T02:20:31.665Z,1.79
2023-02-07T02:22:57.923Z,1.71
2023-02-07T02:25:24.180Z,1.71
2023-02-07T02:27:50.464Z,1.56
2023-02-07T02:30:16.765Z,1.51
2023-02-07T02:32:43.030Z,1.43
2023-02-07T02:35:09.287Z,1.43
2023-02-07T02:37:35.547Z,1.47
2023-02-07T02:40:02.893Z,1.50
2023-02-07T02:42:29.139Z,1.42
2023-02-07T02:44:55.398Z,1.24
2023-02-07T02:47:21.667Z,0.97
2023-02-07T02:49:47.913Z,0.92
2023-02-07T02:52:14.177Z,0.95
2023-02-07T02:54:40.442Z,1.04
2023-02-07T02:57:06.684Z,0.95
2023-02-07T02:59:32.959Z,0.93
2023-02-07T03:01:59.251Z,0.88
2023-02-07T03:04:25.634Z,1.00
2023-02-07T03:06:51.881Z,1.05
2023-02-07T03:09:18.158Z,1.06
2023-02-07T03:11:44.453Z,1.07
2023-02-07T03:14:10.716Z,1.09
2023-02-07T03:16:36.999Z,1.08
2023-02-07T03:19:03.267Z,1.03
2023-02-07T03:21:29.533Z,1.09
2023-02-07T03:23:55.820Z,1.12
2023-02-07T03:26:22.124Z,1.18
2023-02-07T03:28:48.475Z,1.07
2023-02-07T03:31:14.784Z,0.93
2023-02-07T03:33:41.112Z,0.91
2023-02-07T03:36:07.390Z,0.75
2023-02-07T03:38:33.652Z,0.79
2023-02-07T03:40:59.915Z,0.73
2023-02-07T03:43:26.187Z,0.64
2023-02-07T03:45:52.462Z,0.48
2023-02-07T03:48:18.736Z,0.33
2023-02-07T03:50:45.020Z,0.25
2023-02-07T03:53:11.297Z,0.28
2023-02-07T03:55:37.940Z,0.22
2023-02-07T03:58:04.389Z,0.39
2023-02-07T04:00:30.679Z,0.45
2023-02-07T04:02:56.937Z,0.33
2023-02-07T04:05:23.227Z,0.52
2023-02-07T04:07:49.502Z,0.54
2023-02-07T04:10:15.776Z,0.57
2023-02-07T04:12:42.047Z,0.55
2023-02-07T04:15:08.324Z,0.68
2023-02-07T04:17:34.585Z,0.73
2023-02-07T04:20:00.838Z,0.41
2023-02-07T04:22:27.097Z,0.48
2023-02-07T04:24:53.363Z,0.59
2023-02-07T04:27:19.621Z,0.66
2023-02-07T04:29:45.869Z,0.57
2023-02-07T04:32:12.149Z,0.50
2023-02-07T04:34:38.440Z,0.67
2023-02-07T04:37:04.710Z,0.58
2023-02-07T04:39:30.979Z,0.51
2023-02-07T04:41:57.254Z,0.52
2023-02-07T04:44:23.504Z,0.55
2023-02-07T04:46:49.758Z,0.24
2023-02-07T04:49:16.036Z,0.43
2023-02-07T04:51:42.297Z,0.38
2023-02-07T04:54:08.577Z,0.44
2023-02-07T04:56:36.308Z,0.47
2023-02-07T04:59:02.698Z,0.48
2023-02-07T05:01:28.985Z,0.43
2023-02-07T05:03:55.364Z,0.62
2023-02-07T05:06:21.642Z,0.17
2023-02-07T05:08:47.922Z,0.14
2023-02-07T05:11:14.198Z,-0.17
2023-02-07T05:13:40.467Z,-0.10
2023-02-07T05:16:06.719Z,-0.03
2023-02-07T05:18:32.994Z,0.12
2023-02-07T05:20:59.333Z,-0.08
2023-02-07T05:23:25.633Z,-0.25
2023-02-07T05:25:52.017Z,0.03
2023-02-07T05:28:18.351Z,-0.03
2023-02-07T05:30:44.702Z,0.09
2023-02-07T05:33:10.997Z,0.13
2023-02-07T05:35:37.605Z,0.33
2023-02-07T05:38:04.035Z,0.40
2023-02-07T05:40:30.289Z,0.45
2023-02-07T05:42:56.561Z,0.50
2023-02-07T05:45:22.830Z,0.42
2023-02-07T05:47:49.118Z,0.38
2023-02-07T05:50:15.386Z,0.29
2023-02-07T05:52:41.676Z,0.35
2023-02-07T05:55:07.946Z,0.26
2023-02-07T05:57:34.211Z,0.22
2023-02-07T06:00:00.523Z,0.21
2023-02-07T06:02:26.872Z,0.20
2023-02-07T06:04:53.309Z,0.23
2023-02-07T06:07:19.588Z,0.30
2023-02-07T06:09:45.873Z,0.29
2023-02-07T06:12:12.126Z,0.36
2023-02-07T06:14:38.446Z,0.38
2023-02-07T06:17:04.721Z,0.28
2023-02-07T06:19:30.986Z,0.21
2023-02-07T06:21:57.293Z,0.19
2023-02-07T06:24:23.563Z,0.31
2023-02-07T06:26:49.844Z,0.19
2023-02-07T06:29:16.129Z,0.03
2023-02-07T06:31:42.437Z,-0.34
2023-02-07T06:34:08.752Z,-0.49
2023-02-07T06:36:35.026Z,-0.54
2023-02-07T06:39:01.396Z,-0.65
2023-02-07T06:41:27.666Z,-0.76
2023-02-07T06:43:53.934Z,-0.66
2023-02-07T06:46:20.299Z,-0.67
2023-02-07T06:48:46.645Z,-0.54
2023-02-07T06:51:12.928Z,-0.58
2023-02-07T06:53:39.189Z,-0.49
2023-02-07T06:56:05.458Z,-0.53
2023-02-07T06:58:31.717Z,-0.61
2023-02-07T07:00:57.994Z,-0.65
2023-02-07T07:03:24.271Z,-0.64
2023-02-07T07:05:50.569Z,-0.60
2023-02-07T07:08:16.849Z,-0.55
2023-02-07T07:10:43.115Z,-0.72
2023-02-07T07:13:09.382Z,-0.81
2023-02-07T07:15:35.811Z,-0.85
2023-02-07T07:18:02.143Z,-1.04
2023-02-07T07:20:28.477Z,-0.96
2023-02-07T07:22:54.762Z,-0.79
2023-02-07T07:25:21.037Z,-0.76
2023-02-07T07:27:47.330Z,-0.69
2023-02-07T07:30:13.628Z,-0.59
2023-02-07T07:32:39.949Z,-0.64
2023-02-07T07:35:06.222Z,-0.56
2023-02-07T07:37:32.510Z,-0.52
2023-02-07T07:39:58.772Z,-0.50
2023-02-07T07:42:25.182Z,-0.36
2023-02-07T07:44:51.470Z,-0.34
2023-02-07T07:47:17.749Z,-0.31
2023-02-07T07:49:44.015Z,-0.31
2023-02-07T07:52:10.280Z,-0.28
2023-02-07T07:54:36.552Z,-0.25
2023-02-07T07:57:02.841Z,-0.19
2023-02-07T07:59:29.133Z,-0.24
2023-02-07T08:01:55.409Z,-0.23
2023-02-07T08:04:21.729Z,-0.11
2023-02-07T08:06:48.003Z,0.00
2023-02-07T08:09:14.297Z,0.02
2023-02-07T08:11:40.567Z,-0.01
2023-02-07T08:14:06.856Z,0.10
2023-02-07T08:16:33.142Z,0.10
2023-02-07T08:18:59.431Z,0.00
2023-02-07T08:21:25.694Z,-0.08
2023-02-07T08:23:52.533Z,0.07
2023-02-07T08:26:18.810Z,0.12
2023-02-07T08:28:45.088Z,-0.02
2023-02-07T08:31:11.409Z,-0.00
2023-02-07T08:33:37.712Z,0.10
2023-02-07T08:36:04.001Z,0.02
2023-02-07T08:38:30.276Z,0.22
2023-02-07T08:40:56.545Z,0.20
2023-02-07T08:43:22.815Z,0.33
2023-02-07T08:45:49.152Z,0.36
2023-02-07T08:48:15.454Z,0.42
2023-02-07T08:50:41.831Z,0.36
2023-02-07T08:53:08.098Z,0.48
2023-02-07T08:55:34.363Z,0.42
2023-02-07T08:58:00.660Z,0.55
2023-02-07T09:00:26.941Z,0.47
2023-02-07T09:02:53.202Z,0.60
2023-02-07T09:05:19.473Z,0.64
2023-02-07T09:07:45.857Z,0.69
2023-02-07T09:10:12.132Z,0.71
2023-02-07T09:12:38.410Z,0.75
2023-02-07T09:15:04.689Z,0.79
2023-02-07T09:17:31.032Z,0.88
2023-02-07T09:19:57.323Z,0.92
2023-02-07T09:22:23.646Z,0.90
2023-02-07T09:24:49.925Z,0.77
2023-02-07T09:27:16.197Z,0.74
2023-02-07T09:29:42.470Z,1.00
2023-02-07T09:32:08.749Z,0.93
2023-02-07T09:34:35.001Z,0.98
2023-02-07T09:37:01.257Z,0.93
2023-02-07T09:39:27.525Z,1.01
2023-02-07T09:41:53.779Z,0.88
2023-02-07T09:44:20.177Z,0.89
2023-02-07T09:46:46.543Z,0.96
2023-02-07T09:49:12.800Z,1.05
2023-02-07T09:51:39.084Z,1.05
2023-02-07T09:54:05.342Z,1.23
2023-02-07T09:56:31.622Z,1.35
2023-02-07T09:58:57.966Z,1.43
2023-02-07T10:01:24.250Z,1.51
2023-02-07T10:03:50.538Z,1.37
2023-02-07T10:06:18.897Z,1.50
2023-02-07T10:08:45.550Z,1.52
2023-02-07T10:11:11.800Z,1.60
2023-02-07T10:13:38.065Z,1.64
2023-02-07T10:16:04.389Z,1.68
2023-02-07T10:18:30.680Z,1.76
2023-02-07T10:20:59.075Z,1.70
2023-02-07T10:23:25.348Z,1.77
2023-02-07T10:25:51.616Z,1.79
2023-02-07T10:28:17.911Z,1.86
2023-02-07T10:30:44.276Z,1.74
2023-02-07T10:33:10.560Z,1.97
2023-02-07T10:35:36.844Z,1.86
2023-02-07T10:38:03.100Z,2.08
2023-02-07T10:40:29.363Z,2.11
2023-02-07T10:42:55.794Z,2.24
2023-02-07T10:45:22.065Z,2.30
2023-02-07T10:47:48.310Z,2.34
2023-02-07T10:50:18.654Z,2.33
2023-02-07T10:52:51.169Z,2.36
2023-02-07T10:55:17.429Z,2.46
2023-02-07T10:57:50.940Z,2.61
2023-02-07T11:00:17.430Z,2.54
2023-02-07T11:02:43.729Z,2.62
2023-02-07T11:05:10.028Z,2.43
2023-02-07T11:07:47.170Z,2.54
2023-02-07T11:10:14.110Z,2.67
2023-02-07T11:12:40.362Z,2.78
2023-02-07T11:15:06.652Z,2.66
2023-02-07T11:17:32.933Z,2.70
2023-02-07T11:19:59.234Z,2.75
2023-02-07T11:22:25.528Z,2.79
2023-02-07T11:24:51.874Z,2.94
2023-02-07T11:27:18.138Z,2.97
2023-02-07T11:29:44.432Z,3.00
2023-02-07T11:32:10.709Z,3.13
2023-02-07T11:34:36.976Z,3.27
2023-02-07T11:37:03.238Z,3.41
2023-02-07T11:39:29.548Z,3.38
2023-02-07T11:41:55.826Z,3.50
2023-02-07T11:44:22.204Z,3.51
2023-02-07T11:46:48.493Z,3.71
2023-02-07T11:49:14.784Z,3.73
2023-02-07T11:51:41.058Z,3.87
2023-02-07T11:54:07.344Z,3.99
2023-02-07T11:56:33.615Z,3.99
2023-02-07T11:58:59.916Z,4.06
2023-02-07T12:01:26.185Z,4.15
2023-02-07T12:03:52.463Z,4.28
2023-02-07T12:06:18.749Z,4.30
2023-02-07T12:08:45.066Z,4.53
2023-02-07T12:11:11.354Z,4.69
2023-02-07T12:13:37.624Z,4.69
2023-02-07T12:16:03.910Z,4.76
2023-02-07T12:18:30.192Z,4.91
2023-02-07T12:20:56.490Z,5.02
2023-02-07T12:23:41.214Z,5.16
2023-02-07T12:26:08.820Z,5.36
2023-02-07T12:28:35.093Z,5.52
2023-02-07T12:31:01.374Z,5.62
2023-02-07T12:33:27.675Z,5.68
2023-02-07T12:35:57.617Z,5.84
2023-02-07T12:38:24.412Z,5.88
2023-02-07T12:40:50.697Z,5.95
2023-02-07T12:43:16.961Z,6.02
2023-02-07T12:45:43.286Z,5.90
2023-02-07T12:48:09.593Z,6.02
2023-02-07T12:50:35.913Z,6.12
2023-02-07T12:53:02.210Z,6.24
2023-02-07T12:55:28.483Z,6.19
2023-02-07T12:57:54.743Z,6.10
2023-02-07T13:00:21.014Z,6.03
2023-02-07T13:02:47.265Z,6.21
2023-02-07T13:05:13.533Z,6.36
2023-02-07T13:07:39.818Z,6.33
2023-02-07T13:10:06.086Z,6.34
2023-02-07T13:12:32.348Z,5.98
2023-02-07T13:14:58.656Z,6.15
2023-02-07T13:17:24.934Z,6.29
2023-02-07T13:19:51.224Z,6.29
2023-02-07T13:22:17.488Z,6.44
2023-02-07T13:24:43.758Z,6.63
2023-02-07T13:27:10.037Z,6.81
2023-02-07T13:29:36.295Z,6.96
2023-02-07T13:32:02.685Z,6.81
2023-02-07T13:34:29.001Z,6.62
2023-02-07T13:36:56.134Z,6.33
2023-02-07T13:39:23.464Z,6.12
2023-02-07T13:41:49.731Z,6.41
2023-02-07T13:44:16.025Z,6.62
2023-02-07T13:46:42.449Z,6.57
2023-02-07T13:49:08.756Z,6.63
2023-02-07T13:51:35.022Z,6.71
2023-02-07T13:54:01.377Z,6.84
2023-02-07T13:56:27.673Z,6.76
2023-02-07T13:58:53.936Z,6.79
2023-02-07T14:01:20.293Z,6.76
2023-02-07T14:03:47.553Z,6.77
2023-02-07T14:06:13.938Z,6.84
2023-02-07T14:08:40.233Z,6.92
2023-02-07T14:11:06.526Z,6.95
2023-02-07T14:13:32.830Z,7.03
2023-02-07T14:15:59.089Z,7.05
2023-02-07T14:18:25.358Z,7.05
2023-02-07T14:20:51.627Z,7.07
2023-02-07T14:23:17.975Z,7.25
2023-02-07T14:25:44.230Z,7.38
2023-02-07T14:28:10.557Z,7.54
2023-02-07T14:30:37.406Z,7.57
2023-02-07T14:33:03.981Z,7.64
2023-02-07T14:35:30.598Z,7.80
2023-02-07T14:37:56.874Z,7.84
2023-02-07T14:40:23.160Z,7.94
2023-02-07T14:42:49.458Z,7.86
2023-02-07T14:45:15.736Z,7.81
2023-02-07T14:47:41.998Z,7.74
2023-02-07T14:50:08.278Z,7.76
2023-02-07T14:52:34.533Z,7.97
2023-02-07T14:55:00.781Z,8.05
2023-02-07T14:57:27.129Z,8.11
2023-02-07T14:59:53.383Z,8.04
2023-02-07T15:02:19.739Z,8.08
2023-02-07T15:04:46.198Z,8.16
2023-02-07T15:07:12.473Z,8.06
2023-02-07T15:09:38.753Z,8.07
2023-02-07T15:12:12.807Z,8.15
2023-02-07T15:14:42.145Z,8.07
2023-02-07T15:17:08.410Z,8.02
2023-02-07T15:19:34.673Z,8.11
2023-02-07T15:22:00.965Z,8.05
2023-02-07T15:24:27.250Z,7.94
2023-02-07T15:26:53.532Z,7.56
2023-02-07T15:29:19.793Z,7.64
2023-02-07T15:31:46.375Z,7.59
2023-02-07T15:34:12.860Z,7.56
2023-02-07T15:36:39.111Z,7.46
2023-02-07T15:39:05.397Z,7.40
2023-02-07T15:41:31.672Z,7.38
2023-02-07T15:43:58.012Z,7.38
2023-02-07T15:46:24.327Z,7.24
2023-02-07T15:48:50.698Z,7.02
2023-02-07T15:51:16.969Z,6.99
2023-02-07T15:53:43.211Z,6.87
2023-02-07T15:56:09.475Z,6.68
2023-02-07T15:58:35.773Z,6.64
2023-02-07T16:01:02.086Z,6.54
2023-02-07T16:03:28.397Z,6.51
2023-02-07T16:05:54.714Z,6.48
2023-02-07T16:08:21.010Z,6.35
2023-02-07T16:10:47.299Z,6.35
2023-02-07T16:13:13.561Z,6.36
2023-02-07T16:15:39.842Z,6.29
2023-02-07T16:18:06.127Z,6.28
2023-02-07T16:20:32.412Z,6.23
2023-02-07T16:22:58.722Z,6.09
2023-02-07T16:25:24.971Z,6.05
2023-02-07T16:27:51.256Z,5.98
2023-02-07T16:30:17.580Z,5.89
2023-02-07T16:32:43.886Z,5.88
2023-02-07T16:35:10.198Z,5.80
2023-02-07T16:37:36.487Z,5.77
2023-02-07T16:40:02.761Z,5.66
2023-02-07T16:42:29.043Z,5.66
2023-02-07T16:44:55.303Z,5.59
2023-02-07T16:47:21.588Z,5.48
2023-02-07T16:49:47.905Z,5.48
2023-02-07T16:52:14.177Z,5.45
2023-02-07T16:54:40.453Z,5.35
2023-02-07T16:57:06.750Z,5.26
2023-02-07T16:59:33.056Z,5.12
2023-02-07T17:01:59.368Z,5.06
2023-02-07T17:04:25.660Z,4.92
2023-02-07T17:06:51.977Z,4.80
2023-02-07T17:09:18.271Z,4.69
2023-02-07T17:11:44.533Z,4.59
2023-02-07T17:14:10.779Z,4.57
2023-02-07T17:16:37.059Z,4.58
2023-02-07T17:19:03.338Z,4.54
2023-02-07T17:21:29.627Z,4.56
2023-02-07T17:23:55.902Z,4.47
2023-02-07T17:26:23.300Z,4.43
2023-02-07T17:28:49.692Z,4.33
2023-02-07T17:31:16.070Z,4.24
2023-02-07T17:33:42.381Z,4.10
2023-02-07T17:36:08.655Z,3.99
2023-02-07T17:38:35.059Z,3.90
2023-02-07T17:41:01.333Z,3.84
2023-02-07T17:43:27.602Z,3.79
2023-02-07T17:45:53.866Z,3.79
2023-02-07T17:48:20.159Z,3.77
2023-02-07T17:50:46.428Z,3.78
2023-02-07T17:53:12.698Z,3.80
2023-02-07T17:55:38.968Z,3.74
2023-02-07T17:58:05.264Z,3.67
2023-02-07T18:00:31.514Z,3.48
2023-02-07T18:02:57.772Z,3.41
2023-02-07T18:05:24.134Z,3.35
2023-02-07T18:07:50.451Z,3.28
2023-02-07T18:10:16.716Z,3.18
2023-02-07T18:12:42.981Z,3.20
2023-02-07T18:15:09.252Z,3.17
2023-02-07T18:17:35.515Z,3.20
2023-02-07T18:20:01.793Z,3.26
2023-02-07T18:22:28.090Z,3.24
2023-02-07T18:24:54.371Z,3.25
2023-02-07T18:27:20.641Z,3.15
2023-02-07T18:29:46.916Z,3.07
2023-02-07T18:32:13.189Z,3.08
2023-02-07T18:34:39.443Z,2.99
2023-02-07T18:37:05.722Z,2.88
2023-02-07T18:39:31.995Z,2.82
2023-02-07T18:41:58.286Z,2.79
2023-02-07T18:44:24.577Z,2.70
2023-02-07T18:46:50.840Z,2.68
2023-02-07T18:49:17.127Z,2.63
2023-02-07T18:51:43.400Z,2.60
2023-02-07T18:54:09.683Z,2.57
2023-02-07T18:56:35.974Z,2.59
2023-02-07T18:59:02.276Z,2.68
2023-02-07T19:01:28.603Z,2.78
2023-02-07T19:03:54.906Z,2.74
2023-02-07T19:06:21.177Z,2.69
2023-02-07T19:08:47.437Z,2.59
2023-02-07T19:11:13.705Z,2.55
2023-02-07T19:13:40.023Z,2.58
2023-02-07T19:16:06.352Z,2.43
2023-02-07T19:18:32.641Z,2.42
2023-02-07T19:20:58.905Z,2.38
2023-02-07T19:23:25.230Z,2.32
2023-02-07T19:25:51.525Z,2.31
2023-02-07T19:28:17.853Z,2.22
2023-02-07T19:30:44.188Z,2.03
2023-02-07T19:33:10.465Z,2.06
2023-02-07T19:35:36.741Z,2.00
2023-02-07T19:38:03.037Z,2.05
2023-02-07T19:40:29.322Z,2.06
2023-02-07T19:42:55.635Z,2.06
2023-02-07T19:45:21.925Z,1.88
2023-02-07T19:47:48.212Z,1.77
2023-02-07T19:50:14.485Z,1.83
2023-02-07T19:52:40.766Z,1.78
2023-02-07T19:55:07.039Z,1.83
2023-02-07T19:57:33.303Z,1.89
2023-02-07T19:59:59.562Z,1.99
2023-02-07T20:02:25.850Z,2.09
2023-02-07T20:04:52.110Z,2.11
2023-02-07T20:07:18.429Z,2.19
2023-02-07T20:09:44.804Z,2.25
2023-02-07T20:12:11.132Z,2.26
2023-02-07T20:14:37.401Z,2.36
2023-02-07T20:17:03.656Z,2.36
2023-02-07T20:19:29.940Z,2.37
2023-02-07T20:21:56.241Z,2.34
2023-02-07T20:24:22.586Z,2.36
2023-02-07T20:26:48.860Z,2.36
2023-02-07T20:29:15.126Z,2.38
2023-02-07T20:31:41.412Z,2.39
2023-02-07T20:34:07.755Z,2.34
2023-02-07T20:36:34.011Z,2.15
2023-02-07T20:39:00.275Z,2.16
2023-02-07T20:41:26.558Z,2.23
2023-02-07T20:43:52.857Z,2.29
2023-02-07T20:46:19.161Z,2.28
2023-02-07T20:48:45.465Z,2.16
2023-02-07T20:51:11.745Z,2.05
2023-02-07T20:53:38.018Z,2.03
2023-02-07T20:56:04.324Z,2.09
2023-02-07T20:58:30.620Z,2.05
2023-02-07T21:00:56.942Z,2.05
2023-02-07T21:03:23.239Z,2.05
2023-02-07T21:05:49.505Z,1.98
2023-02-07T21:08:15.760Z,2.07
2023-02-07T21:10:42.478Z,2.06
2023-02-07T21:13:09.108Z,2.10
2023-02-07T21:15:35.378Z,2.12
2023-02-07T21:18:01.660Z,2.05
2023-02-07T21:20:27.943Z,2.10
2023-02-07T21:22:54.264Z,2.08
2023-02-07T21:25:20.514Z,2.11
2023-02-07T21:27:46.790Z,2.07
2023-02-07T21:30:13.137Z,2.09
2023-02-07T21:32:39.419Z,2.09
2023-02-07T21:35:05.705Z,2.13
2023-02-07T21:37:31.959Z,2.16
2023-02-07T21:39:58.219Z,2.10
2023-02-07T21:42:24.500Z,2.14
2023-02-07T21:44:50.850Z,2.15
2023-02-07T21:47:17.110Z,2.14
2023-02-07T21:49:43.389Z,2.11
2023-02-07T21:52:09.654Z,2.17
2023-02-07T21:54:35.921Z,2.12
2023-02-07T21:57:02.189Z,2.18
2023-02-07T21:59:28.471Z,2.19
2023-02-07T22:01:54.803Z,2.11
2023-02-07T22:04:21.078Z,2.12
2023-02-07T22:06:47.352Z,2.04
2023-02-07T22:09:13.626Z,2.05
2023-02-07T22:11:39.886Z,2.05
2023-02-07T22:14:06.157Z,1.95
2023-02-07T22:16:32.458Z,2.03
2023-02-07T22:18:58.750Z,1.94
2023-02-07T22:21:25.147Z,2.02
2023-02-07T22:23:51.413Z,1.99
2023-02-07T22:26:17.699Z,1.98
2023-02-07T22:28:43.961Z,1.65
2023-02-07T22:31:10.316Z,1.37
2023-02-07T22:33:36.649Z,1.25
2023-02-07T22:36:02.901Z,1.08
2023-02-07T22:38:29.221Z,1.03
2023-02-07T22:40:55.479Z,1.04
2023-02-07T22:43:21.739Z,0.98
2023-02-07T22:45:48.064Z,0.98
2023-02-07T22:48:14.349Z,1.00
2023-02-07T22:50:40.938Z,1.02
2023-02-07T22:53:07.385Z,0.92
2023-02-07T22:55:33.667Z,0.95
2023-02-07T22:57:59.944Z,0.94
2023-02-07T23:00:26.218Z,0.96
2023-02-07T23:02:52.483Z,1.00
2023-02-07T23:05:18.798Z,0.98
2023-02-07T23:07:45.050Z,0.99
2023-02-07T23:10:11.316Z,1.01
2023-02-07T23:12:37.575Z,1.00
2023-02-07T23:15:03.846Z,0.88
2023-02-07T23:17:30.117Z,0.86
2023-02-07T23:19:56.391Z,0.77
2023-02-07T23:22:22.674Z,0.75
2023-02-07T23:24:48.952Z,0.74
2023-02-07T23:27:15.347Z,0.78
2023-02-07T23:29:41.600Z,0.70
2023-02-07T23:32:07.885Z,0.70
2023-02-07T23:34:34.154Z,0.86
2023-02-07T23:37:00.405Z,0.98
2023-02-07T23:39:26.672Z,1.06
2023-02-07T23:41:52.943Z,1.04
2023-02-07T23:44:19.225Z,1.10
2023-02-07T23:46:45.476Z,1.10
2023-02-07T23:49:11.721Z,1.18
2023-02-07T23:51:37.994Z,1.08
2023-02-07T23:54:04.270Z,1.14
2023-02-07T23:56:30.734Z,1.11
2023-02-07T23:58:56.993Z,1.02
